sensor_id;sensor_type;location;lat;lon;timestamp;P1;durP1;ratioP1;P2;durP2;ratioP2
63089;SDS011;49174;43.198;27.824;2023-04-30T00:01:58;14.32;;;6.97;;
63089;SDS011;49174;43.198;27.824;2023-04-30T00:04:23;11.98;;;7.13;;
63089;SDS011;49174;43.198;27.824;2023-04-30T00:06:49;13.98;;;7.75;;
63089;SDS011;49174;43.198;27.824;2023-04-30T00:09:14;12.27;;;7.57;;
63089;SDS011;49174;43.198;27.824;2023-04-30T00:11:40;12.88;;;6.55;;
63089;SDS011;49174;43.198;27.824;2023-04-30T00:14:05;12.27;;;8.13;;
63089;SDS011;49174;43.198;27.824;2023-04-30T00:16:31;15.63;;;8.27;;
63089;SDS011;49174;43.198;27.824;2023-04-30T00:18:56;14.60;;;7.57;;
63089;SDS011;49174;43.198;27.824;2023-04-30T00:21:22;12.02;;;7.45;;
63089;SDS011;49174;43.198;27.824;2023-04-30T00:23:48;13.02;;;7.72;;
63089;SDS011;49174;43.198;27.824;2023-04-30T00:26:14;15.30;;;6.90;;
63089;SDS011;49174;43.198;27.824;2023-04-30T00:28:39;11.27;;;6.88;;
63089;SDS011;49174;43.198;27.824;2023-04-30T00:31:05;13.45;;;7.05;;
63089;SDS011;49174;43.198;27.824;2023-04-30T00:33:33;13.95;;;8.35;;
63089;SDS011;49174;43.198;27.824;2023-04-30T00:35:59;12.65;;;8.32;;
63089;SDS011;49174;43.198;27.824;2023-04-30T00:38:24;13.05;;;8.50;;
63089;SDS011;49174;43.198;27.824;2023-04-30T00:40:50;11.75;;;8.43;;
63089;SDS011;49174;43.198;27.824;2023-04-30T00:43:16;17.67;;;9.40;;
63089;SDS011;49174;43.198;27.824;2023-04-30T00:45:42;14.23;;;7.88;;
63089;SDS011;49174;43.198;27.824;2023-04-30T00:48:07;13.13;;;8.27;;
63089;SDS011;49174;43.198;27.824;2023-04-30T00:50:34;13.32;;;8.63;;
63089;SDS011;49174;43.198;27.824;2023-04-30T00:53:00;18.90;;;8.98;;
63089;SDS011;49174;43.198;27.824;2023-04-30T00:55:26;13.63;;;8.93;;
63089;SDS011;49174;43.198;27.824;2023-04-30T00:57:51;13.65;;;9.10;;
63089;SDS011;49174;43.198;27.824;2023-04-30T01:00:17;13.93;;;9.55;;
63089;SDS011;49174;43.198;27.824;2023-04-30T01:02:43;17.42;;;9.18;;
63089;SDS011;49174;43.198;27.824;2023-04-30T01:05:09;13.75;;;9.98;;
63089;SDS011;49174;43.198;27.824;2023-04-30T01:07:34;20.83;;;9.45;;
63089;SDS011;49174;43.198;27.824;2023-04-30T01:10:03;20.52;;;10.43;;
63089;SDS011;49174;43.198;27.824;2023-04-30T01:20:10;15.98;;;8.98;;
63089;SDS011;49174;43.198;27.824;2023-04-30T01:28:12;13.38;;;9.57;;
63089;SDS011;49174;43.198;27.824;2023-04-30T01:33:08;17.88;;;10.25;;
63089;SDS011;49174;43.198;27.824;2023-04-30T01:39:20;14.20;;;8.18;;
63089;SDS011;49174;43.198;27.824;2023-04-30T01:41:33;13.38;;;8.85;;
63089;SDS011;49174;43.198;27.824;2023-04-30T01:46:34;12.75;;;8.15;;
63089;SDS011;49174;43.198;27.824;2023-04-30T01:51:32;13.95;;;7.45;;
63089;SDS011;49174;43.198;27.824;2023-04-30T01:57:01;19.33;;;9.50;;
63089;SDS011;49174;43.198;27.824;2023-04-30T01:59:31;17.27;;;9.32;;
63089;SDS011;49174;43.198;27.824;2023-04-30T02:01:58;16.13;;;8.73;;
63089;SDS011;49174;43.198;27.824;2023-04-30T02:04:24;14.27;;;7.82;;
63089;SDS011;49174;43.198;27.824;2023-04-30T02:06:50;13.63;;;7.93;;
63089;SDS011;49174;43.198;27.824;2023-04-30T02:09:15;17.75;;;7.72;;
63089;SDS011;49174;43.198;27.824;2023-04-30T02:11:41;12.18;;;7.25;;
63089;SDS011;49174;43.198;27.824;2023-04-30T02:14:06;16.70;;;9.45;;
63089;SDS011;49174;43.198;27.824;2023-04-30T02:16:32;12.18;;;8.30;;
63089;SDS011;49174;43.198;27.824;2023-04-30T02:18:57;15.68;;;9.32;;
63089;SDS011;49174;43.198;27.824;2023-04-30T02:21:23;13.20;;;8.98;;
63089;SDS011;49174;43.198;27.824;2023-04-30T02:23:48;15.68;;;8.35;;
63089;SDS011;49174;43.198;27.824;2023-04-30T02:26:14;14.68;;;8.82;;
63089;SDS011;49174;43.198;27.824;2023-04-30T02:28:39;15.75;;;8.48;;
63089;SDS011;49174;43.198;27.824;2023-04-30T02:31:05;13.98;;;8.55;;
63089;SDS011;49174;43.198;27.824;2023-04-30T02:33:30;13.43;;;8.38;;
63089;SDS011;49174;43.198;27.824;2023-04-30T02:35:57;15.55;;;7.95;;
63089;SDS011;49174;43.198;27.824;2023-04-30T02:38:24;18.05;;;8.52;;
63089;SDS011;49174;43.198;27.824;2023-04-30T02:40:50;12.70;;;7.50;;
63089;SDS011;49174;43.198;27.824;2023-04-30T02:43:15;12.65;;;7.45;;
63089;SDS011;49174;43.198;27.824;2023-04-30T02:45:41;16.00;;;7.32;;
63089;SDS011;49174;43.198;27.824;2023-04-30T02:48:06;35.08;;;17.05;;
63089;SDS011;49174;43.198;27.824;2023-04-30T02:50:32;45.17;;;22.73;;
63089;SDS011;49174;43.198;27.824;2023-04-30T02:52:57;59.40;;;27.60;;
63089;SDS011;49174;43.198;27.824;2023-04-30T02:55:23;19.65;;;11.50;;
63089;SDS011;49174;43.198;27.824;2023-04-30T02:57:48;24.13;;;13.68;;
63089;SDS011;49174;43.198;27.824;2023-04-30T03:00:14;49.78;;;27.83;;
63089;SDS011;49174;43.198;27.824;2023-04-30T03:02:40;20.38;;;11.63;;
63089;SDS011;49174;43.198;27.824;2023-04-30T03:05:05;16.33;;;9.48;;
63089;SDS011;49174;43.198;27.824;2023-04-30T03:07:31;27.80;;;15.70;;
63089;SDS011;49174;43.198;27.824;2023-04-30T03:09:57;15.32;;;10.88;;
63089;SDS011;49174;43.198;27.824;2023-04-30T03:12:22;16.00;;;10.73;;
63089;SDS011;49174;43.198;27.824;2023-04-30T03:14:49;14.30;;;9.90;;
63089;SDS011;49174;43.198;27.824;2023-04-30T03:17:14;18.33;;;9.63;;
63089;SDS011;49174;43.198;27.824;2023-04-30T03:19:40;14.48;;;8.98;;
63089;SDS011;49174;43.198;27.824;2023-04-30T03:22:06;14.68;;;9.48;;
63089;SDS011;49174;43.198;27.824;2023-04-30T03:24:31;14.55;;;8.65;;
63089;SDS011;49174;43.198;27.824;2023-04-30T03:26:57;14.15;;;10.02;;
63089;SDS011;49174;43.198;27.824;2023-04-30T03:29:23;13.95;;;9.50;;
63089;SDS011;49174;43.198;27.824;2023-04-30T03:31:48;17.63;;;10.15;;
63089;SDS011;49174;43.198;27.824;2023-04-30T03:34:14;12.98;;;7.50;;
63089;SDS011;49174;43.198;27.824;2023-04-30T03:36:40;12.63;;;7.85;;
63089;SDS011;49174;43.198;27.824;2023-04-30T03:39:05;19.30;;;8.27;;
63089;SDS011;49174;43.198;27.824;2023-04-30T03:41:33;12.50;;;7.68;;
63089;SDS011;49174;43.198;27.824;2023-04-30T03:43:59;11.77;;;7.30;;
63089;SDS011;49174;43.198;27.824;2023-04-30T03:46:25;13.77;;;7.65;;
63089;SDS011;49174;43.198;27.824;2023-04-30T03:48:50;20.20;;;11.73;;
63089;SDS011;49174;43.198;27.824;2023-04-30T03:51:17;16.65;;;9.38;;
63089;SDS011;49174;43.198;27.824;2023-04-30T03:53:44;14.60;;;8.35;;
63089;SDS011;49174;43.198;27.824;2023-04-30T03:56:10;18.52;;;9.88;;
63089;SDS011;49174;43.198;27.824;2023-04-30T03:58:36;17.92;;;7.90;;
63089;SDS011;49174;43.198;27.824;2023-04-30T04:01:02;20.48;;;8.98;;
63089;SDS011;49174;43.198;27.824;2023-04-30T04:03:28;9.38;;;6.70;;
63089;SDS011;49174;43.198;27.824;2023-04-30T04:05:53;13.00;;;7.60;;
63089;SDS011;49174;43.198;27.824;2023-04-30T04:08:21;11.48;;;6.88;;
63089;SDS011;49174;43.198;27.824;2023-04-30T04:10:46;13.45;;;6.85;;
63089;SDS011;49174;43.198;27.824;2023-04-30T04:13:12;13.65;;;7.30;;
63089;SDS011;49174;43.198;27.824;2023-04-30T04:15:37;10.10;;;7.35;;
63089;SDS011;49174;43.198;27.824;2023-04-30T04:18:03;11.27;;;7.07;;
63089;SDS011;49174;43.198;27.824;2023-04-30T04:20:31;13.43;;;8.15;;
63089;SDS011;49174;43.198;27.824;2023-04-30T04:22:56;15.32;;;9.77;;
63089;SDS011;49174;43.198;27.824;2023-04-30T04:25:22;16.00;;;10.90;;
63089;SDS011;49174;43.198;27.824;2023-04-30T04:27:50;20.00;;;13.00;;
63089;SDS011;49174;43.198;27.824;2023-04-30T04:30:16;16.67;;;11.18;;
63089;SDS011;49174;43.198;27.824;2023-04-30T04:32:42;15.15;;;10.80;;
63089;SDS011;49174;43.198;27.824;2023-04-30T04:35:15;17.20;;;11.55;;
63089;SDS011;49174;43.198;27.824;2023-04-30T04:37:43;19.33;;;12.30;;
63089;SDS011;49174;43.198;27.824;2023-04-30T04:40:09;17.73;;;12.35;;
63089;SDS011;49174;43.198;27.824;2023-04-30T04:42:36;14.60;;;9.88;;
63089;SDS011;49174;43.198;27.824;2023-04-30T04:45:04;19.52;;;11.05;;
63089;SDS011;49174;43.198;27.824;2023-04-30T04:47:31;15.80;;;9.90;;
63089;SDS011;49174;43.198;27.824;2023-04-30T04:49:57;12.75;;;7.95;;
63089;SDS011;49174;43.198;27.824;2023-04-30T04:52:23;15.90;;;8.60;;
63089;SDS011;49174;43.198;27.824;2023-04-30T04:54:48;14.65;;;9.13;;
63089;SDS011;49174;43.198;27.824;2023-04-30T04:57:14;11.52;;;8.18;;
63089;SDS011;49174;43.198;27.824;2023-04-30T04:59:40;17.33;;;8.18;;
63089;SDS011;49174;43.198;27.824;2023-04-30T05:02:05;14.65;;;9.57;;
63089;SDS011;49174;43.198;27.824;2023-04-30T05:04:31;21.35;;;11.65;;
63089;SDS011;49174;43.198;27.824;2023-04-30T05:06:56;15.68;;;9.90;;
63089;SDS011;49174;43.198;27.824;2023-04-30T05:09:22;17.80;;;9.18;;
63089;SDS011;49174;43.198;27.824;2023-04-30T05:11:47;11.27;;;7.35;;
63089;SDS011;49174;43.198;27.824;2023-04-30T05:14:13;16.23;;;9.73;;
63089;SDS011;49174;43.198;27.824;2023-04-30T05:16:39;16.27;;;8.63;;
63089;SDS011;49174;43.198;27.824;2023-04-30T05:19:04;14.93;;;8.95;;
63089;SDS011;49174;43.198;27.824;2023-04-30T05:21:30;13.10;;;8.70;;
63089;SDS011;49174;43.198;27.824;2023-04-30T05:23:56;15.90;;;9.23;;
63089;SDS011;49174;43.198;27.824;2023-04-30T05:26:22;14.88;;;10.15;;
63089;SDS011;49174;43.198;27.824;2023-04-30T05:28:48;19.90;;;10.13;;
63089;SDS011;49174;43.198;27.824;2023-04-30T05:31:14;17.35;;;10.07;;
63089;SDS011;49174;43.198;27.824;2023-04-30T05:33:40;17.75;;;12.40;;
63089;SDS011;49174;43.198;27.824;2023-04-30T05:36:06;18.63;;;11.90;;
63089;SDS011;49174;43.198;27.824;2023-04-30T05:38:32;19.45;;;12.57;;
63089;SDS011;49174;43.198;27.824;2023-04-30T05:40:57;20.52;;;13.02;;
63089;SDS011;49174;43.198;27.824;2023-04-30T05:43:23;19.75;;;12.02;;
63089;SDS011;49174;43.198;27.824;2023-04-30T05:45:48;21.70;;;12.07;;
63089;SDS011;49174;43.198;27.824;2023-04-30T05:48:14;17.35;;;11.98;;
63089;SDS011;49174;43.198;27.824;2023-04-30T05:50:39;16.38;;;10.02;;
63089;SDS011;49174;43.198;27.824;2023-04-30T05:53:05;19.13;;;11.95;;
63089;SDS011;49174;43.198;27.824;2023-04-30T05:55:30;20.23;;;11.82;;
63089;SDS011;49174;43.198;27.824;2023-04-30T05:57:56;22.38;;;11.35;;
63089;SDS011;49174;43.198;27.824;2023-04-30T06:00:21;14.27;;;10.05;;
63089;SDS011;49174;43.198;27.824;2023-04-30T06:02:47;17.02;;;10.90;;
63089;SDS011;49174;43.198;27.824;2023-04-30T06:05:12;21.02;;;10.90;;
63089;SDS011;49174;43.198;27.824;2023-04-30T06:07:39;17.63;;;10.20;;
63089;SDS011;49174;43.198;27.824;2023-04-30T06:10:05;18.73;;;11.05;;
63089;SDS011;49174;43.198;27.824;2023-04-30T06:12:31;16.08;;;10.63;;
63089;SDS011;49174;43.198;27.824;2023-04-30T06:14:57;18.63;;;11.18;;
63089;SDS011;49174;43.198;27.824;2023-04-30T06:17:26;17.77;;;10.70;;
63089;SDS011;49174;43.198;27.824;2023-04-30T06:19:52;19.70;;;11.00;;
63089;SDS011;49174;43.198;27.824;2023-04-30T06:22:17;16.52;;;10.32;;
63089;SDS011;49174;43.198;27.824;2023-04-30T06:24:43;13.98;;;8.82;;
63089;SDS011;49174;43.198;27.824;2023-04-30T06:27:08;17.08;;;9.30;;
63089;SDS011;49174;43.198;27.824;2023-04-30T06:29:34;14.60;;;9.07;;
63089;SDS011;49174;43.198;27.824;2023-04-30T06:32:01;15.90;;;9.98;;
63089;SDS011;49174;43.198;27.824;2023-04-30T06:34:26;14.85;;;8.90;;
63089;SDS011;49174;43.198;27.824;2023-04-30T06:36:52;11.63;;;7.95;;
63089;SDS011;49174;43.198;27.824;2023-04-30T06:39:18;14.60;;;8.18;;
63089;SDS011;49174;43.198;27.824;2023-04-30T06:41:43;12.80;;;7.90;;
63089;SDS011;49174;43.198;27.824;2023-04-30T06:44:09;12.18;;;8.23;;
63089;SDS011;49174;43.198;27.824;2023-04-30T06:46:34;11.50;;;8.68;;
63089;SDS011;49174;43.198;27.824;2023-04-30T06:49:00;10.25;;;7.80;;
63089;SDS011;49174;43.198;27.824;2023-04-30T06:51:25;11.65;;;5.90;;
63089;SDS011;49174;43.198;27.824;2023-04-30T06:53:51;10.73;;;6.82;;
63089;SDS011;49174;43.198;27.824;2023-04-30T06:56:17;11.80;;;7.97;;
63089;SDS011;49174;43.198;27.824;2023-04-30T06:58:42;3.55;;;2.40;;
63089;SDS011;49174;43.198;27.824;2023-04-30T07:01:09;2.25;;;1.30;;
63089;SDS011;49174;43.198;27.824;2023-04-30T07:03:34;2.47;;;1.58;;
63089;SDS011;49174;43.198;27.824;2023-04-30T07:06:00;2.17;;;1.05;;
63089;SDS011;49174;43.198;27.824;2023-04-30T07:08:26;1.88;;;1.08;;
63089;SDS011;49174;43.198;27.824;2023-04-30T07:10:51;4.68;;;1.50;;
63089;SDS011;49174;43.198;27.824;2023-04-30T07:13:16;2.90;;;1.27;;
63089;SDS011;49174;43.198;27.824;2023-04-30T07:15:42;2.78;;;1.13;;
63089;SDS011;49174;43.198;27.824;2023-04-30T07:18:08;3.60;;;1.70;;
63089;SDS011;49174;43.198;27.824;2023-04-30T07:20:34;4.45;;;1.50;;
63089;SDS011;49174;43.198;27.824;2023-04-30T07:23:00;3.15;;;1.50;;
63089;SDS011;49174;43.198;27.824;2023-04-30T07:25:25;6.88;;;1.95;;
63089;SDS011;49174;43.198;27.824;2023-04-30T07:27:51;3.20;;;1.60;;
63089;SDS011;49174;43.198;27.824;2023-04-30T07:30:23;3.83;;;2.20;;
63089;SDS011;49174;43.198;27.824;2023-04-30T07:32:48;3.70;;;1.85;;
63089;SDS011;49174;43.198;27.824;2023-04-30T07:35:14;4.43;;;1.85;;
63089;SDS011;49174;43.198;27.824;2023-04-30T07:37:40;4.18;;;2.38;;
63089;SDS011;49174;43.198;27.824;2023-04-30T07:40:05;3.45;;;1.88;;
63089;SDS011;49174;43.198;27.824;2023-04-30T07:42:37;3.97;;;1.98;;
63089;SDS011;49174;43.198;27.824;2023-04-30T07:45:09;4.00;;;2.00;;
63089;SDS011;49174;43.198;27.824;2023-04-30T07:47:35;4.07;;;2.33;;
63089;SDS011;49174;43.198;27.824;2023-04-30T07:50:00;6.13;;;1.88;;
63089;SDS011;49174;43.198;27.824;2023-04-30T07:52:26;4.20;;;2.10;;
63089;SDS011;49174;43.198;27.824;2023-04-30T07:54:51;13.15;;;7.20;;
63089;SDS011;49174;43.198;27.824;2023-04-30T07:57:17;6.63;;;3.78;;
63089;SDS011;49174;43.198;27.824;2023-04-30T07:59:42;3.85;;;2.40;;
63089;SDS011;49174;43.198;27.824;2023-04-30T08:02:08;5.57;;;2.67;;
63089;SDS011;49174;43.198;27.824;2023-04-30T08:04:34;4.40;;;1.92;;
63089;SDS011;49174;43.198;27.824;2023-04-30T08:06:59;18.70;;;7.57;;
63089;SDS011;49174;43.198;27.824;2023-04-30T08:09:26;8.05;;;2.70;;
63089;SDS011;49174;43.198;27.824;2023-04-30T08:11:52;14.52;;;7.25;;
63089;SDS011;49174;43.198;27.824;2023-04-30T08:14:17;4.90;;;2.65;;
63089;SDS011;49174;43.198;27.824;2023-04-30T08:16:44;10.15;;;3.55;;
63089;SDS011;49174;43.198;27.824;2023-04-30T08:19:09;8.25;;;3.25;;
63089;SDS011;49174;43.198;27.824;2023-04-30T08:21:35;9.38;;;2.75;;
63089;SDS011;49174;43.198;27.824;2023-04-30T08:24:01;8.45;;;4.45;;
63089;SDS011;49174;43.198;27.824;2023-04-30T08:26:26;5.47;;;2.40;;
63089;SDS011;49174;43.198;27.824;2023-04-30T08:28:52;5.03;;;2.40;;
63089;SDS011;49174;43.198;27.824;2023-04-30T08:31:17;4.60;;;2.17;;
63089;SDS011;49174;43.198;27.824;2023-04-30T08:33:43;2.83;;;2.08;;
63089;SDS011;49174;43.198;27.824;2023-04-30T08:36:08;3.35;;;2.00;;
63089;SDS011;49174;43.198;27.824;2023-04-30T08:38:34;3.95;;;2.50;;
63089;SDS011;49174;43.198;27.824;2023-04-30T08:41:17;4.85;;;2.03;;
63089;SDS011;49174;43.198;27.824;2023-04-30T08:43:46;7.68;;;2.20;;
63089;SDS011;49174;43.198;27.824;2023-04-30T08:46:16;3.60;;;2.00;;
63089;SDS011;49174;43.198;27.824;2023-04-30T08:48:42;4.68;;;1.95;;
63089;SDS011;49174;43.198;27.824;2023-04-30T08:51:08;4.88;;;1.83;;
63089;SDS011;49174;43.198;27.824;2023-04-30T08:53:34;3.50;;;1.77;;
63089;SDS011;49174;43.198;27.824;2023-04-30T08:56:02;3.38;;;2.25;;
63089;SDS011;49174;43.198;27.824;2023-04-30T08:58:29;2.22;;;1.73;;
63089;SDS011;49174;43.198;27.824;2023-04-30T09:00:56;4.47;;;2.28;;
63089;SDS011;49174;43.198;27.824;2023-04-30T09:03:23;4.28;;;1.95;;
63089;SDS011;49174;43.198;27.824;2023-04-30T09:05:49;3.00;;;2.33;;
63089;SDS011;49174;43.198;27.824;2023-04-30T09:08:18;3.80;;;2.50;;
63089;SDS011;49174;43.198;27.824;2023-04-30T09:11:06;6.13;;;2.75;;
63089;SDS011;49174;43.198;27.824;2023-04-30T09:13:45;3.92;;;1.90;;
63089;SDS011;49174;43.198;27.824;2023-04-30T09:16:11;5.20;;;2.28;;
63089;SDS011;49174;43.198;27.824;2023-04-30T09:18:38;3.47;;;1.92;;
63089;SDS011;49174;43.198;27.824;2023-04-30T09:21:04;4.70;;;2.03;;
63089;SDS011;49174;43.198;27.824;2023-04-30T09:23:32;5.05;;;2.55;;
63089;SDS011;49174;43.198;27.824;2023-04-30T09:25:57;3.33;;;2.00;;
63089;SDS011;49174;43.198;27.824;2023-04-30T09:28:24;3.40;;;1.88;;
63089;SDS011;49174;43.198;27.824;2023-04-30T09:30:53;3.30;;;1.90;;
63089;SDS011;49174;43.198;27.824;2023-04-30T09:33:21;5.35;;;2.10;;
63089;SDS011;49174;43.198;27.824;2023-04-30T09:35:46;3.38;;;1.92;;
63089;SDS011;49174;43.198;27.824;2023-04-30T09:38:29;3.45;;;1.77;;
63089;SDS011;49174;43.198;27.824;2023-04-30T09:40:57;2.57;;;1.87;;
63089;SDS011;49174;43.198;27.824;2023-04-30T09:43:26;4.25;;;2.25;;
63089;SDS011;49174;43.198;27.824;2023-04-30T09:45:57;4.10;;;2.22;;
63089;SDS011;49174;43.198;27.824;2023-04-30T09:48:25;6.07;;;2.70;;
63089;SDS011;49174;43.198;27.824;2023-04-30T09:50:54;3.80;;;1.65;;
63089;SDS011;49174;43.198;27.824;2023-04-30T09:53:19;4.05;;;2.50;;
63089;SDS011;49174;43.198;27.824;2023-04-30T09:55:49;4.13;;;2.47;;
63089;SDS011;49174;43.198;27.824;2023-04-30T09:58:16;3.15;;;2.05;;
63089;SDS011;49174;43.198;27.824;2023-04-30T10:00:44;4.38;;;2.00;;
63089;SDS011;49174;43.198;27.824;2023-04-30T10:03:11;4.45;;;2.35;;
63089;SDS011;49174;43.198;27.824;2023-04-30T10:08:26;3.53;;;1.95;;
63089;SDS011;49174;43.198;27.824;2023-04-30T10:10:58;2.38;;;1.52;;
63089;SDS011;49174;43.198;27.824;2023-04-30T10:13:37;3.58;;;2.20;;
63089;SDS011;49174;43.198;27.824;2023-04-30T10:16:10;3.38;;;2.20;;
63089;SDS011;49174;43.198;27.824;2023-04-30T10:18:42;3.72;;;2.05;;
63089;SDS011;49174;43.198;27.824;2023-04-30T10:21:11;5.13;;;2.08;;
63089;SDS011;49174;43.198;27.824;2023-04-30T10:23:38;3.38;;;1.77;;
63089;SDS011;49174;43.198;27.824;2023-04-30T10:26:06;4.35;;;2.10;;
63089;SDS011;49174;43.198;27.824;2023-04-30T10:28:32;5.50;;;1.92;;
63089;SDS011;49174;43.198;27.824;2023-04-30T10:30:58;3.72;;;1.80;;
63089;SDS011;49174;43.198;27.824;2023-04-30T10:33:28;3.42;;;1.80;;
63089;SDS011;49174;43.198;27.824;2023-04-30T10:36:05;3.90;;;1.63;;
63089;SDS011;49174;43.198;27.824;2023-04-30T10:38:35;3.97;;;1.60;;
63089;SDS011;49174;43.198;27.824;2023-04-30T10:41:04;4.43;;;1.70;;
63089;SDS011;49174;43.198;27.824;2023-04-30T10:43:31;3.40;;;2.00;;
63089;SDS011;49174;43.198;27.824;2023-04-30T10:45:59;4.25;;;1.70;;
63089;SDS011;49174;43.198;27.824;2023-04-30T10:48:26;4.05;;;1.90;;
63089;SDS011;49174;43.198;27.824;2023-04-30T10:50:56;4.30;;;1.67;;
63089;SDS011;49174;43.198;27.824;2023-04-30T10:53:23;2.97;;;1.48;;
63089;SDS011;49174;43.198;27.824;2023-04-30T10:58:22;5.28;;;2.03;;
63089;SDS011;49174;43.198;27.824;2023-04-30T11:03:39;5.00;;;1.88;;
63089;SDS011;49174;43.198;27.824;2023-04-30T11:06:13;3.88;;;2.15;;
63089;SDS011;49174;43.198;27.824;2023-04-30T11:08:43;2.75;;;1.95;;
63089;SDS011;49174;43.198;27.824;2023-04-30T11:11:10;4.13;;;1.77;;
63089;SDS011;49174;43.198;27.824;2023-04-30T11:13:44;3.60;;;1.85;;
63089;SDS011;49174;43.198;27.824;2023-04-30T11:16:10;4.60;;;2.10;;
63089;SDS011;49174;43.198;27.824;2023-04-30T11:18:45;3.78;;;2.15;;
63089;SDS011;49174;43.198;27.824;2023-04-30T11:21:11;3.55;;;1.95;;
63089;SDS011;49174;43.198;27.824;2023-04-30T11:23:41;2.15;;;1.60;;
63089;SDS011;49174;43.198;27.824;2023-04-30T11:26:13;5.35;;;1.63;;
63089;SDS011;49174;43.198;27.824;2023-04-30T11:28:38;4.57;;;1.73;;
63089;SDS011;49174;43.198;27.824;2023-04-30T11:31:18;4.00;;;1.92;;
63089;SDS011;49174;43.198;27.824;2023-04-30T11:33:44;3.15;;;1.70;;
63089;SDS011;49174;43.198;27.824;2023-04-30T11:36:10;3.95;;;1.58;;
63089;SDS011;49174;43.198;27.824;2023-04-30T11:38:38;2.22;;;1.60;;
63089;SDS011;49174;43.198;27.824;2023-04-30T11:41:04;3.88;;;1.67;;
63089;SDS011;49174;43.198;27.824;2023-04-30T11:43:31;3.58;;;1.67;;
63089;SDS011;49174;43.198;27.824;2023-04-30T11:46:02;4.70;;;1.65;;
63089;SDS011;49174;43.198;27.824;2023-04-30T11:48:40;2.47;;;1.80;;
63089;SDS011;49174;43.198;27.824;2023-04-30T11:51:17;5.70;;;1.77;;
63089;SDS011;49174;43.198;27.824;2023-04-30T11:53:47;3.63;;;2.20;;
63089;SDS011;49174;43.198;27.824;2023-04-30T11:56:17;3.15;;;1.50;;
63089;SDS011;49174;43.198;27.824;2023-04-30T11:58:48;2.85;;;1.77;;
63089;SDS011;49174;43.198;27.824;2023-04-30T12:01:14;5.85;;;1.67;;
63089;SDS011;49174;43.198;27.824;2023-04-30T12:03:42;4.68;;;1.92;;
63089;SDS011;49174;43.198;27.824;2023-04-30T12:06:32;4.07;;;2.08;;
63089;SDS011;49174;43.198;27.824;2023-04-30T12:08:57;5.63;;;1.73;;
63089;SDS011;49174;43.198;27.824;2023-04-30T12:11:29;2.95;;;1.75;;
63089;SDS011;49174;43.198;27.824;2023-04-30T12:14:08;4.40;;;1.50;;
63089;SDS011;49174;43.198;27.824;2023-04-30T12:16:48;6.20;;;1.65;;
63089;SDS011;49174;43.198;27.824;2023-04-30T12:19:19;3.42;;;1.30;;
63089;SDS011;49174;43.198;27.824;2023-04-30T12:21:46;3.30;;;1.83;;
63089;SDS011;49174;43.198;27.824;2023-04-30T12:24:13;3.03;;;1.60;;
63089;SDS011;49174;43.198;27.824;2023-04-30T12:26:43;4.70;;;1.65;;
63089;SDS011;49174;43.198;27.824;2023-04-30T12:29:10;4.20;;;2.10;;
63089;SDS011;49174;43.198;27.824;2023-04-30T12:31:39;4.88;;;1.80;;
63089;SDS011;49174;43.198;27.824;2023-04-30T12:34:11;2.30;;;1.42;;
63089;SDS011;49174;43.198;27.824;2023-04-30T12:36:38;3.47;;;2.08;;
63089;SDS011;49174;43.198;27.824;2023-04-30T12:39:08;3.22;;;1.52;;
63089;SDS011;49174;43.198;27.824;2023-04-30T12:41:40;3.50;;;1.75;;
63089;SDS011;49174;43.198;27.824;2023-04-30T12:44:30;4.97;;;2.03;;
63089;SDS011;49174;43.198;27.824;2023-04-30T12:47:08;3.35;;;1.92;;
63089;SDS011;49174;43.198;27.824;2023-04-30T12:49:34;3.13;;;1.63;;
63089;SDS011;49174;43.198;27.824;2023-04-30T12:52:03;6.72;;;1.83;;
63089;SDS011;49174;43.198;27.824;2023-04-30T12:54:36;2.83;;;1.55;;
63089;SDS011;49174;43.198;27.824;2023-04-30T12:57:03;4.35;;;2.03;;
63089;SDS011;49174;43.198;27.824;2023-04-30T12:59:38;4.95;;;1.88;;
63089;SDS011;49174;43.198;27.824;2023-04-30T13:04:30;4.88;;;1.75;;
63089;SDS011;49174;43.198;27.824;2023-04-30T13:06:56;2.35;;;1.60;;
63089;SDS011;49174;43.198;27.824;2023-04-30T13:09:22;3.70;;;1.50;;
63089;SDS011;49174;43.198;27.824;2023-04-30T13:11:47;3.70;;;1.80;;
63089;SDS011;49174;43.198;27.824;2023-04-30T13:14:15;8.07;;;2.03;;
63089;SDS011;49174;43.198;27.824;2023-04-30T13:16:43;5.35;;;1.80;;
63089;SDS011;49174;43.198;27.824;2023-04-30T13:19:08;2.85;;;1.52;;
63089;SDS011;49174;43.198;27.824;2023-04-30T13:21:34;5.30;;;2.00;;
63089;SDS011;49174;43.198;27.824;2023-04-30T13:23:59;5.22;;;1.55;;
63089;SDS011;49174;43.198;27.824;2023-04-30T13:26:26;2.90;;;1.33;;
63089;SDS011;49174;43.198;27.824;2023-04-30T13:28:54;4.05;;;1.60;;
63089;SDS011;49174;43.198;27.824;2023-04-30T13:31:19;2.67;;;1.67;;
63089;SDS011;49174;43.198;27.824;2023-04-30T13:33:46;4.40;;;2.05;;
63089;SDS011;49174;43.198;27.824;2023-04-30T13:36:12;6.05;;;1.92;;
63089;SDS011;49174;43.198;27.824;2023-04-30T13:38:37;3.08;;;1.98;;
63089;SDS011;49174;43.198;27.824;2023-04-30T13:41:03;3.33;;;1.80;;
63089;SDS011;49174;43.198;27.824;2023-04-30T13:43:29;4.85;;;1.85;;
63089;SDS011;49174;43.198;27.824;2023-04-30T13:45:55;4.40;;;1.80;;
63089;SDS011;49174;43.198;27.824;2023-04-30T13:48:24;3.42;;;2.15;;
63089;SDS011;49174;43.198;27.824;2023-04-30T13:50:52;6.90;;;2.22;;
63089;SDS011;49174;43.198;27.824;2023-04-30T13:53:19;5.35;;;2.47;;
63089;SDS011;49174;43.198;27.824;2023-04-30T13:55:44;3.92;;;2.25;;
63089;SDS011;49174;43.198;27.824;2023-04-30T13:58:10;6.63;;;2.40;;
63089;SDS011;49174;43.198;27.824;2023-04-30T14:00:37;5.18;;;2.65;;
63089;SDS011;49174;43.198;27.824;2023-04-30T14:03:02;2.25;;;1.90;;
63089;SDS011;49174;43.198;27.824;2023-04-30T14:05:28;5.45;;;2.10;;
63089;SDS011;49174;43.198;27.824;2023-04-30T14:07:54;4.35;;;2.17;;
63089;SDS011;49174;43.198;27.824;2023-04-30T14:10:19;3.75;;;1.90;;
63089;SDS011;49174;43.198;27.824;2023-04-30T14:12:45;7.93;;;2.20;;
63089;SDS011;49174;43.198;27.824;2023-04-30T14:15:10;5.63;;;1.98;;
63089;SDS011;49174;43.198;27.824;2023-04-30T14:17:36;6.32;;;3.55;;
63089;SDS011;49174;43.198;27.824;2023-04-30T14:20:01;4.40;;;2.25;;
63089;SDS011;49174;43.198;27.824;2023-04-30T14:22:28;5.35;;;2.22;;
63089;SDS011;49174;43.198;27.824;2023-04-30T14:24:53;5.18;;;2.80;;
63089;SDS011;49174;43.198;27.824;2023-04-30T14:27:19;3.75;;;2.05;;
63089;SDS011;49174;43.198;27.824;2023-04-30T14:29:45;5.45;;;2.05;;
63089;SDS011;49174;43.198;27.824;2023-04-30T14:32:12;9.48;;;2.53;;
63089;SDS011;49174;43.198;27.824;2023-04-30T14:34:40;4.22;;;2.13;;
63089;SDS011;49174;43.198;27.824;2023-04-30T14:37:06;2.65;;;1.92;;
63089;SDS011;49174;43.198;27.824;2023-04-30T14:39:31;4.25;;;1.92;;
63089;SDS011;49174;43.198;27.824;2023-04-30T14:41:57;3.17;;;1.73;;
63089;SDS011;49174;43.198;27.824;2023-04-30T14:44:22;3.40;;;2.25;;
63089;SDS011;49174;43.198;27.824;2023-04-30T14:46:51;4.50;;;2.38;;
63089;SDS011;49174;43.198;27.824;2023-04-30T14:49:17;3.70;;;2.25;;
63089;SDS011;49174;43.198;27.824;2023-04-30T14:51:43;4.82;;;2.20;;
63089;SDS011;49174;43.198;27.824;2023-04-30T14:54:08;2.92;;;2.00;;
63089;SDS011;49174;43.198;27.824;2023-04-30T14:56:34;11.55;;;5.93;;
63089;SDS011;49174;43.198;27.824;2023-04-30T14:59:00;4.75;;;2.38;;
63089;SDS011;49174;43.198;27.824;2023-04-30T15:01:25;5.93;;;2.15;;
63089;SDS011;49174;43.198;27.824;2023-04-30T15:03:51;3.78;;;2.40;;